createdAt,value
2018-02-21T00:00:10.403Z,80.20
2018-02-21T00:02:13.926Z,79.10
2018-02-21T00:04:18.364Z,80.30
2018-02-21T00:06:22.666Z,80.40
2018-02-21T00:08:26.217Z,80.40
2018-02-21T00:10:29.866Z,80.60
2018-02-21T00:12:33.529Z,79.90
2018-02-21T00:14:37.089Z,79.70
2018-02-21T00:16:40.698Z,80.20
2018-02-21T00:18:44.295Z,80.10
2018-02-21T00:20:47.823Z,80.00
2018-02-21T00:22:51.377Z,79.90
2018-02-21T00:24:54.990Z,79.80
2018-02-21T00:26:58.533Z,79.80
2018-02-21T00:29:02.860Z,78.20
2018-02-21T00:31:06.469Z,78.20
2018-02-21T00:33:10.037Z,78.80
2018-02-21T00:35:13.590Z,79.30
2018-02-21T00:37:17.211Z,80.60
2018-02-21T00:39:20.788Z,80.80
2018-02-21T00:41:24.384Z,80.50
2018-02-21T00:43:27.989Z,79.80
2018-02-21T00:45:31.564Z,79.80
2018-02-21T00:47:35.170Z,79.40
2018-02-21T00:49:38.753Z,79.90
2018-02-21T00:51:42.301Z,80.80
2018-02-21T00:53:46.630Z,81.80
2018-02-21T00:55:50.240Z,81.80
2018-02-21T00:57:53.866Z,81.80
2018-02-21T00:59:57.407Z,81.50
2018-02-21T01:02:00.977Z,81.60
2018-02-21T01:04:04.593Z,81.50
2018-02-21T01:06:08.167Z,81.60
2018-02-21T01:08:11.699Z,81.80
2018-02-21T01:10:15.291Z,81.30
2018-02-21T01:12:18.855Z,81.20
2018-02-21T01:14:23.250Z,81.10
2018-02-21T01:16:27.153Z,81.10
2018-02-21T01:18:30.789Z,81.10
2018-02-21T01:20:34.315Z,81.20
2018-02-21T01:22:37.945Z,81.10
2018-02-21T01:24:41.532Z,81.00
2018-02-21T01:26:45.103Z,81.70
2018-02-21T01:28:49.482Z,81.80
2018-02-21T01:30:53.079Z,81.70
2018-02-21T01:32:56.663Z,81.70
2018-02-21T01:35:00.321Z,81.30
2018-02-21T01:37:03.846Z,81.40
2018-02-21T01:39:07.405Z,82.20
2018-02-21T01:41:10.985Z,82.40
2018-02-21T01:43:15.355Z,81.20
2018-02-21T01:45:18.960Z,81.20
2018-02-21T01:47:22.566Z,81.50
2018-02-21T01:49:26.165Z,81.60
2018-02-21T01:51:29.750Z,81.80
2018-02-21T01:53:33.341Z,81.80
2018-02-21T01:55:36.861Z,81.90
2018-02-21T01:57:40.433Z,82.30
2018-02-21T01:59:44.050Z,82.60
2018-02-21T02:01:47.642Z,82.60
2018-02-21T02:03:51.223Z,82.30
2018-02-21T02:05:54.789Z,82.50
2018-02-21T02:07:58.397Z,82.00
2018-02-21T02:10:02.050Z,82.10
2018-02-21T02:12:05.653Z,82.60
2018-02-21T02:14:09.988Z,81.00
2018-02-21T02:16:13.644Z,80.90
2018-02-21T02:18:17.220Z,81.70
2018-02-21T02:20:20.817Z,82.30
2018-02-21T02:22:24.476Z,82.40
2018-02-21T02:24:28.027Z,82.90
2018-02-21T02:26:31.790Z,83.40
2018-02-21T02:28:36.947Z,83.60
2018-02-21T02:30:40.497Z,83.50
2018-02-21T02:32:44.828Z,83.40
2018-02-21T02:34:48.420Z,83.20
2018-02-21T02:36:52.318Z,83.30
2018-02-21T02:39:07.964Z,82.80
2018-02-21T02:41:11.498Z,83.20
2018-02-21T02:43:16.146Z,83.20
2018-02-21T02:45:20.581Z,83.10
2018-02-21T02:47:24.191Z,83.10
2018-02-21T02:49:27.795Z,82.90
2018-02-21T02:51:31.415Z,82.80
2018-02-21T02:53:35.743Z,84.30
2018-02-21T02:55:40.065Z,83.90
2018-02-21T02:57:44.415Z,83.50
2018-02-21T02:59:48.033Z,83.50
2018-02-21T03:01:51.584Z,83.50
2018-02-21T03:03:55.147Z,82.30
2018-02-21T03:05:58.772Z,82.50
2018-02-21T03:08:02.382Z,82.90
2018-02-21T03:10:06.079Z,83.30
2018-02-21T03:12:09.722Z,82.70
2018-02-21T03:14:14.051Z,82.90
2018-02-21T03:16:18.387Z,83.50
2018-02-21T03:18:22.026Z,83.50
2018-02-21T03:20:28.229Z,83.40
2018-02-21T03:22:32.601Z,83.20
2018-02-21T03:24:37.093Z,83.40
2018-02-21T03:26:40.641Z,83.20
2018-02-21T03:28:45.832Z,83.30
2018-02-21T03:30:49.397Z,83.30
2018-02-21T03:32:52.970Z,83.50
2018-02-21T03:34:56.616Z,84.90
2018-02-21T03:37:00.921Z,86.00
2018-02-21T03:39:05.875Z,86.00
2018-02-21T03:41:09.403Z,85.10
2018-02-21T03:43:13.725Z,84.80
2018-02-21T03:45:18.026Z,84.70
2018-02-21T03:47:22.338Z,84.50
2018-02-21T03:49:25.904Z,84.50
2018-02-21T03:51:29.526Z,84.60
2018-02-21T03:53:33.662Z,84.90
2018-02-21T03:55:37.254Z,86.40
2018-02-21T03:57:40.862Z,85.40
2018-02-21T03:59:45.204Z,84.50
2018-02-21T04:01:48.731Z,84.50
2018-02-21T04:03:52.358Z,84.60
2018-02-21T04:05:55.926Z,84.80
2018-02-21T04:07:59.486Z,84.90
2018-02-21T04:10:03.199Z,84.20
2018-02-21T04:12:06.774Z,84.00
2018-02-21T04:14:11.528Z,83.70
2018-02-21T04:16:15.132Z,83.90
2018-02-21T04:18:18.742Z,83.80
2018-02-21T04:20:22.281Z,83.80
2018-02-21T04:22:25.888Z,84.30
2018-02-21T04:24:29.475Z,84.60
2018-02-21T04:26:33.066Z,84.90
2018-02-21T04:28:37.751Z,85.00
2018-02-21T04:30:41.302Z,85.00
2018-02-21T04:32:44.883Z,84.80
2018-02-21T04:34:48.443Z,84.40
2018-02-21T04:36:53.403Z,84.00
2018-02-21T04:38:57.841Z,84.00
2018-02-21T04:41:01.573Z,84.10
2018-02-21T04:43:11.496Z,84.40
2018-02-21T04:45:15.237Z,84.00
2018-02-21T04:47:18.828Z,83.50
2018-02-21T04:49:22.444Z,83.70
2018-02-21T04:51:25.958Z,83.40
2018-02-21T04:53:29.558Z,83.30
2018-02-21T04:55:38.767Z,83.00
2018-02-21T04:57:47.893Z,83.20
2018-02-21T04:59:57.107Z,83.60
2018-02-21T05:02:01.515Z,83.30
2018-02-21T05:04:05.875Z,83.60
2018-02-21T05:06:09.451Z,83.60
2018-02-21T05:08:13.066Z,84.50
2018-02-21T05:10:16.651Z,83.80
2018-02-21T05:12:20.196Z,84.70
2018-02-21T05:14:23.734Z,84.40
2018-02-21T05:16:27.307Z,84.70
2018-02-21T05:18:31.665Z,84.20
2018-02-21T05:20:35.220Z,84.10
2018-02-21T05:22:38.787Z,83.40
2018-02-21T05:24:43.124Z,83.10
2018-02-21T05:26:46.664Z,83.10
2018-02-21T05:28:50.274Z,83.40
2018-02-21T05:30:53.832Z,83.60
2018-02-21T05:32:58.211Z,83.40
2018-02-21T05:35:01.815Z,83.50
2018-02-21T05:37:05.362Z,83.60
2018-02-21T05:39:08.923Z,83.50
2018-02-21T05:41:12.541Z,84.10
2018-02-21T05:43:16.112Z,84.70
2018-02-21T05:45:20.415Z,83.90
2018-02-21T05:47:23.981Z,83.80
2018-02-21T05:49:27.560Z,84.50
2018-02-21T05:51:31.154Z,84.90
2018-02-21T05:53:34.756Z,86.10
2018-02-21T05:55:38.271Z,86.10
2018-02-21T05:57:41.859Z,86.10
2018-02-21T05:59:45.482Z,85.80
2018-02-21T06:01:49.017Z,86.70
2018-02-21T06:03:52.574Z,85.80
2018-02-21T06:05:56.184Z,86.20
2018-02-21T06:07:59.767Z,86.80
2018-02-21T06:10:04.301Z,85.60
2018-02-21T06:12:08.123Z,85.60
2018-02-21T06:14:11.638Z,87.00
2018-02-21T06:16:15.174Z,86.50
2018-02-21T06:18:18.803Z,85.70
2018-02-21T06:20:22.358Z,85.10
2018-02-21T06:22:25.907Z,83.90
2018-02-21T06:24:29.512Z,84.20
2018-02-21T06:26:33.067Z,85.50
2018-02-21T06:28:36.591Z,85.60
2018-02-21T06:30:40.200Z,85.60
2018-02-21T06:32:43.798Z,85.50
2018-02-21T06:34:47.475Z,84.50
2018-02-21T06:36:51.788Z,84.80
2018-02-21T06:38:55.312Z,84.70
2018-02-21T06:40:58.896Z,84.60
2018-02-21T06:43:02.489Z,84.60
2018-02-21T06:45:06.067Z,85.10
2018-02-21T06:47:09.667Z,84.80
2018-02-21T06:49:13.927Z,84.20
2018-02-21T06:51:18.311Z,84.30
2018-02-21T06:53:21.931Z,84.30
2018-02-21T06:55:25.490Z,84.40
2018-02-21T06:57:29.881Z,84.20
2018-02-21T06:59:33.433Z,84.20
2018-02-21T07:01:37.735Z,84.70
2018-02-21T07:03:41.286Z,84.70
2018-02-21T07:05:45.704Z,84.50
2018-02-21T07:07:49.225Z,84.50
2018-02-21T07:09:52.852Z,84.50
2018-02-21T07:11:57.142Z,84.80
2018-02-21T07:14:00.711Z,84.80
2018-02-21T07:16:05.142Z,84.20
2018-02-21T07:18:08.766Z,84.20
2018-02-21T07:20:12.333Z,84.00
2018-02-21T07:22:15.904Z,84.50
2018-02-21T07:24:19.506Z,83.90
2018-02-21T07:26:23.924Z,87.30
2018-02-21T07:28:27.476Z,86.60
2018-02-21T07:30:31.070Z,86.20
2018-02-21T07:32:34.627Z,85.70
2018-02-21T07:34:38.971Z,85.00
2018-02-21T07:36:42.499Z,85.00
2018-02-21T07:38:46.125Z,85.20
2018-02-21T07:40:49.698Z,85.50
2018-02-21T07:42:53.313Z,86.50
2018-02-21T07:44:56.851Z,85.80
2018-02-21T07:47:00.400Z,85.60
2018-02-21T07:49:04.038Z,85.80
2018-02-21T07:51:07.609Z,85.60
2018-02-21T07:53:11.236Z,85.20
2018-02-21T07:55:15.613Z,84.70
2018-02-21T07:57:19.195Z,84.70
2018-02-21T07:59:22.812Z,84.90
2018-02-21T08:01:27.148Z,85.00
2018-02-21T08:03:31.253Z,85.00
2018-02-21T08:05:34.830Z,85.30
2018-02-21T08:07:43.165Z,85.00
2018-02-21T08:09:49.335Z,85.40
2018-02-21T08:11:52.928Z,85.40
2018-02-21T08:13:56.505Z,85.40
2018-02-21T08:16:00.081Z,85.50
2018-02-21T08:18:03.739Z,85.60
2018-02-21T08:20:07.284Z,85.90
2018-02-21T08:22:11.649Z,85.60
2018-02-21T08:24:15.215Z,85.60
2018-02-21T08:26:18.765Z,85.70
2018-02-21T08:28:22.412Z,85.80
2018-02-21T08:30:25.991Z,85.80
2018-02-21T08:32:29.563Z,85.80
2018-02-21T08:34:33.163Z,85.80
2018-02-21T08:36:37.556Z,86.00
2018-02-21T08:38:41.070Z,86.00
2018-02-21T08:40:45.437Z,87.30
2018-02-21T08:42:49.018Z,86.50
2018-02-21T08:44:52.604Z,86.00
2018-02-21T08:46:56.218Z,86.00
2018-02-21T08:48:59.749Z,85.90
2018-02-21T08:51:03.295Z,86.00
2018-02-21T08:53:06.899Z,86.20
2018-02-21T08:55:10.503Z,85.40
2018-02-21T08:57:14.137Z,85.60
2018-02-21T08:59:17.700Z,85.50
2018-02-21T09:01:21.220Z,85.10
2018-02-21T09:03:24.802Z,84.80
2018-02-21T09:05:28.368Z,85.00
2018-02-21T09:07:31.922Z,85.00
2018-02-21T09:09:35.577Z,84.90
2018-02-21T09:11:39.148Z,84.70
2018-02-21T09:13:43.426Z,84.00
2018-02-21T09:15:47.014Z,83.80
2018-02-21T09:17:50.587Z,84.00
2018-02-21T09:19:54.167Z,84.50
2018-02-21T09:21:57.772Z,84.00
2018-02-21T09:24:01.296Z,83.80
2018-02-21T09:26:04.841Z,83.30
2018-02-21T09:28:09.195Z,82.80
2018-02-21T09:30:12.788Z,82.80
2018-02-21T09:32:16.336Z,82.70
2018-02-21T09:34:19.938Z,82.50
2018-02-21T09:36:24.198Z,82.70
2018-02-21T09:38:27.785Z,82.60
2018-02-21T09:40:31.350Z,81.90
2018-02-21T09:42:34.905Z,81.80
2018-02-21T09:44:38.437Z,81.90
2018-02-21T09:46:42.008Z,81.60
2018-02-21T09:48:45.543Z,81.30
2018-02-21T09:50:49.136Z,81.90
2018-02-21T09:52:53.505Z,81.50
2018-02-21T09:54:57.122Z,81.50
2018-02-21T09:57:00.648Z,81.00
2018-02-21T09:59:05.072Z,80.80
2018-02-21T10:01:08.624Z,80.60
2018-02-21T10:03:12.988Z,80.00
2018-02-21T10:05:16.555Z,80.40
2018-02-21T10:07:20.847Z,79.90
2018-02-21T10:09:24.441Z,79.80
2018-02-21T10:11:28.070Z,80.20
2018-02-21T10:13:32.455Z,79.00
2018-02-21T10:15:36.014Z,78.90
2018-02-21T10:17:39.596Z,78.50
2018-02-21T10:19:43.150Z,79.20
2018-02-21T10:21:47.480Z,77.20
2018-02-21T10:23:51.865Z,77.40
2018-02-21T10:25:55.448Z,77.40
2018-02-21T10:27:58.982Z,77.00
2018-02-21T10:30:03.471Z,77.40
2018-02-21T10:32:07.007Z,77.30
2018-02-21T10:34:10.520Z,76.20
2018-02-21T10:36:14.086Z,77.20
2018-02-21T10:38:17.615Z,76.50
2018-02-21T10:40:21.133Z,74.70
2018-02-21T10:42:24.711Z,76.40
2018-02-21T10:44:28.744Z,75.20
2018-02-21T10:46:32.391Z,74.40
2018-02-21T10:48:35.984Z,73.80
2018-02-21T10:50:40.301Z,75.10
2018-02-21T10:52:44.574Z,74.80
2018-02-21T10:54:48.120Z,74.70
2018-02-21T10:56:51.683Z,71.90
2018-02-21T10:58:55.224Z,74.80
2018-02-21T11:01:04.329Z,73.80
2018-02-21T11:03:07.876Z,74.20
2018-02-21T11:05:11.384Z,74.30
2018-02-21T11:07:15.759Z,74.30
2018-02-21T11:09:19.321Z,74.40
2018-02-21T11:11:23.658Z,71.70
2018-02-21T11:13:27.252Z,71.70
2018-02-21T11:15:30.832Z,74.00
2018-02-21T11:17:34.363Z,75.20
2018-02-21T11:19:37.977Z,77.30
2018-02-21T11:21:41.510Z,73.30
2018-02-21T11:23:45.865Z,72.40
2018-02-21T11:25:49.486Z,72.20
2018-02-21T11:27:53.008Z,71.30
2018-02-21T11:29:57.323Z,71.20
2018-02-21T11:32:01.656Z,71.80
2018-02-21T11:34:05.207Z,71.70
2018-02-21T11:36:08.752Z,72.00
2018-02-21T11:38:12.363Z,68.60
2018-02-21T11:40:15.885Z,69.60
2018-02-21T11:42:19.462Z,72.60
2018-02-21T11:44:22.987Z,74.70
2018-02-21T11:46:26.539Z,72.50
2018-02-21T11:48:30.123Z,71.80
2018-02-21T11:50:33.720Z,72.80
2018-02-21T11:52:38.214Z,71.60
2018-02-21T11:54:41.814Z,71.50
2018-02-21T11:56:46.124Z,67.60
2018-02-21T11:58:50.465Z,69.40
2018-02-21T12:00:54.062Z,68.80
2018-02-21T12:02:57.598Z,67.70
2018-02-21T12:05:01.154Z,65.70
2018-02-21T12:07:04.794Z,63.80
2018-02-21T12:09:08.319Z,65.30
2018-02-21T12:11:12.648Z,65.20
2018-02-21T12:13:17.018Z,68.90
2018-02-21T12:15:20.543Z,68.90
2018-02-21T12:17:24.838Z,66.00
2018-02-21T12:19:28.387Z,66.70
2018-02-21T12:21:31.965Z,63.40
2018-02-21T12:23:36.297Z,62.90
2018-02-21T12:25:39.794Z,62.90
2018-02-21T12:27:43.306Z,65.00
2018-02-21T12:29:46.931Z,65.70
2018-02-21T12:31:50.534Z,65.30
2018-02-21T12:33:54.854Z,67.50
2018-02-21T12:35:58.470Z,67.40
2018-02-21T12:38:01.999Z,65.30
2018-02-21T12:40:06.566Z,65.30
2018-02-21T12:42:10.960Z,59.40
2018-02-21T12:44:14.551Z,59.40
2018-02-21T12:46:18.073Z,59.60
2018-02-21T12:48:21.624Z,58.90
2018-02-21T12:50:25.126Z,58.70
2018-02-21T12:52:28.688Z,60.20
2018-02-21T12:54:32.255Z,58.00
2018-02-21T12:56:35.795Z,60.00
2018-02-21T12:58:39.334Z,59.30
2018-02-21T13:00:42.943Z,55.60
2018-02-21T13:02:46.465Z,57.30
2018-02-21T13:04:49.980Z,58.70
2018-02-21T13:06:53.553Z,60.40
2018-02-21T13:08:57.066Z,55.80
2018-02-21T13:11:00.625Z,55.50
2018-02-21T13:13:04.977Z,56.10
2018-02-21T13:15:08.566Z,56.10
2018-02-21T13:17:12.142Z,53.30
2018-02-21T13:19:16.438Z,54.70
2018-02-21T13:21:20.781Z,53.70
2018-02-21T13:23:24.370Z,53.60
2018-02-21T13:25:28.674Z,54.20
2018-02-21T13:27:32.977Z,53.00
2018-02-21T13:29:36.552Z,53.00
2018-02-21T13:31:40.075Z,49.20
2018-02-21T13:33:44.407Z,50.90
2018-02-21T13:35:47.977Z,51.00
2018-02-21T13:37:52.273Z,50.10
2018-02-21T13:39:55.777Z,50.00
2018-02-21T13:41:59.302Z,51.90
2018-02-21T13:44:02.824Z,48.50
2018-02-21T13:46:06.306Z,50.40
2018-02-21T13:48:09.945Z,56.40
2018-02-21T13:50:13.578Z,55.30
2018-02-21T13:52:17.919Z,52.10
2018-02-21T13:54:21.415Z,52.10
2018-02-21T13:56:24.945Z,53.80
2018-02-21T13:58:28.519Z,51.50
2018-02-21T14:00:32.010Z,51.20
2018-02-21T14:02:35.555Z,53.70
2018-02-21T14:04:40.000Z,52.80
2018-02-21T14:06:43.521Z,52.60
2018-02-21T14:08:47.111Z,52.90
2018-02-21T14:10:50.668Z,52.60
2018-02-21T14:12:54.977Z,52.80
2018-02-21T14:14:58.578Z,52.70
2018-02-21T14:17:02.881Z,51.80
2018-02-21T14:19:06.394Z,51.80
2018-02-21T14:21:09.959Z,49.70
2018-02-21T14:23:13.526Z,51.10
2018-02-21T14:25:17.107Z,53.60
2018-02-21T14:27:20.693Z,50.80
2018-02-21T14:29:24.998Z,50.50
2018-02-21T14:31:28.524Z,50.50
2018-02-21T14:33:32.120Z,50.60
2018-02-21T14:35:35.626Z,49.20
2018-02-21T14:37:39.158Z,48.20
2018-02-21T14:39:43.551Z,48.40
2018-02-21T14:41:47.065Z,48.30
2018-02-21T14:43:51.424Z,45.60
2018-02-21T14:45:54.974Z,45.40
2018-02-21T14:47:59.301Z,43.70
2018-02-21T14:50:03.641Z,46.20
2018-02-21T14:52:07.215Z,46.10
2018-02-21T14:54:11.496Z,47.10
2018-02-21T14:56:15.105Z,46.90
2018-02-21T14:58:18.630Z,46.20
2018-02-21T15:00:22.179Z,46.50
2018-02-21T15:02:26.681Z,50.80
2018-02-21T15:04:30.179Z,50.20
2018-02-21T15:06:33.730Z,47.60
2018-02-21T15:08:37.342Z,53.10
2018-02-21T15:10:40.924Z,51.80
2018-02-21T15:12:45.252Z,51.80
2018-02-21T15:14:48.814Z,51.70
2018-02-21T15:16:52.330Z,51.70
2018-02-21T15:18:56.649Z,52.70
2018-02-21T15:21:00.228Z,52.70
2018-02-21T15:23:03.754Z,55.10
2018-02-21T15:25:07.309Z,53.60
2018-02-21T15:27:10.955Z,54.80
2018-02-21T15:29:14.484Z,54.60
2018-02-21T15:31:18.025Z,54.30
2018-02-21T15:33:21.603Z,54.90
2018-02-21T15:35:25.175Z,51.80
2018-02-21T15:37:28.678Z,51.50
2018-02-21T15:39:32.228Z,51.40
2018-02-21T15:41:35.763Z,51.90
2018-02-21T15:43:39.367Z,50.70
2018-02-21T15:45:43.743Z,50.00
2018-02-21T15:47:47.334Z,49.70
2018-02-21T15:49:51.688Z,48.30
2018-02-21T15:51:55.425Z,48.20
2018-02-21T15:53:59.953Z,48.90
2018-02-21T15:56:03.533Z,48.90
2018-02-21T15:58:07.907Z,48.10
2018-02-21T16:00:11.458Z,48.00
2018-02-21T16:02:15.075Z,49.10
2018-02-21T16:04:18.693Z,50.90
2018-02-21T16:06:22.194Z,51.90
2018-02-21T16:08:25.708Z,53.60
2018-02-21T16:10:29.278Z,53.00
2018-02-21T16:12:32.829Z,53.40
2018-02-21T16:14:36.328Z,53.80
2018-02-21T16:16:39.909Z,54.60
2018-02-21T16:18:44.200Z,57.50
2018-02-21T16:20:49.014Z,57.50
2018-02-21T16:22:52.676Z,54.80
2018-02-21T16:24:56.226Z,55.50
2018-02-21T16:27:00.534Z,56.00
2018-02-21T16:29:04.133Z,55.90
2018-02-21T16:31:07.621Z,55.90
2018-02-21T16:33:11.133Z,56.10
2018-02-21T16:35:15.468Z,56.90
2018-02-21T16:37:18.977Z,56.80
2018-02-21T16:39:22.562Z,56.50
2018-02-21T16:41:26.097Z,56.40
2018-02-21T16:43:29.620Z,57.50
2018-02-21T16:45:33.178Z,58.70
2018-02-21T16:47:36.734Z,57.40
2018-02-21T16:49:40.280Z,57.70
2018-02-21T16:51:43.961Z,58.10
2018-02-21T16:53:53.017Z,58.10
2018-02-21T16:55:56.545Z,58.40
2018-02-21T16:58:00.107Z,59.00
2018-02-21T17:00:03.717Z,58.60
2018-02-21T17:02:07.319Z,58.50
2018-02-21T17:04:11.610Z,58.80
2018-02-21T17:06:15.147Z,58.80
2018-02-21T17:08:18.711Z,58.70
2018-02-21T17:10:23.007Z,58.90
2018-02-21T17:12:26.567Z,58.80
2018-02-21T17:14:30.109Z,59.50
2018-02-21T17:16:33.701Z,60.00
2018-02-21T17:18:37.221Z,59.90
2018-02-21T17:20:40.852Z,60.80
2018-02-21T17:22:44.394Z,60.50
2018-02-21T17:24:47.971Z,61.10
2018-02-21T17:26:51.569Z,61.50
2018-02-21T17:28:55.132Z,62.10
2018-02-21T17:30:58.730Z,62.00
2018-02-21T17:33:02.371Z,61.80
2018-02-21T17:35:06.711Z,62.60
2018-02-21T17:37:11.107Z,61.70
2018-02-21T17:39:15.532Z,61.70
2018-02-21T17:41:25.463Z,62.60
2018-02-21T17:43:29.075Z,62.60
2018-02-21T17:45:32.658Z,62.30
2018-02-21T17:47:37.024Z,62.60
2018-02-21T17:49:40.653Z,62.40
2018-02-21T17:51:44.186Z,62.60
2018-02-21T17:53:48.552Z,62.40
2018-02-21T17:55:52.250Z,62.40
2018-02-21T17:57:55.865Z,62.30
2018-02-21T17:59:59.415Z,62.70
2018-02-21T18:02:03.046Z,63.30
2018-02-21T18:04:06.665Z,62.20
2018-02-21T18:06:10.226Z,62.50
2018-02-21T18:08:13.854Z,62.70
2018-02-21T18:10:17.389Z,62.40
2018-02-21T18:12:20.951Z,62.30
2018-02-21T18:14:24.564Z,62.20
2018-02-21T18:16:28.873Z,63.40
2018-02-21T18:18:33.176Z,62.80
2018-02-21T18:20:36.752Z,62.80
2018-02-21T18:22:40.329Z,62.70
2018-02-21T18:24:43.866Z,63.30
2018-02-21T18:26:48.226Z,63.40
2018-02-21T18:28:52.392Z,63.30
2018-02-21T18:30:55.925Z,63.50
2018-02-21T18:32:59.515Z,63.60
2018-02-21T18:35:03.099Z,64.30
2018-02-21T18:37:07.399Z,64.80
2018-02-21T18:39:10.940Z,64.80
2018-02-21T18:41:14.529Z,66.30
2018-02-21T18:43:18.131Z,65.10
2018-02-21T18:45:21.644Z,65.70
2018-02-21T18:47:25.212Z,66.90
2018-02-21T18:49:28.758Z,66.10
2018-02-21T18:51:32.382Z,66.10
2018-02-21T18:53:36.677Z,66.70
2018-02-21T18:55:40.168Z,66.80
2018-02-21T18:57:43.747Z,66.80
2018-02-21T18:59:47.327Z,66.40
2018-02-21T19:01:50.850Z,66.60
2018-02-21T19:03:54.444Z,67.20
2018-02-21T19:05:58.008Z,67.40
2018-02-21T19:08:01.573Z,68.10
2018-02-21T19:10:05.502Z,67.40
2018-02-21T19:12:09.093Z,67.70
2018-02-21T19:14:12.640Z,68.10
2018-02-21T19:16:16.219Z,68.20
2018-02-21T19:18:19.820Z,68.40
2018-02-21T19:20:23.374Z,67.60
2018-02-21T19:22:26.956Z,68.90
2018-02-21T19:24:30.553Z,68.90
2018-02-21T19:26:34.862Z,68.70
2018-02-21T19:28:39.208Z,68.30
2018-02-21T19:30:42.788Z,68.20
2018-02-21T19:32:46.376Z,68.30
2018-02-21T19:34:50.031Z,68.80
2018-02-21T19:36:54.434Z,68.40
2018-02-21T19:38:57.950Z,68.30
2018-02-21T19:41:01.594Z,69.20
2018-02-21T19:43:05.175Z,68.70
2018-02-21T19:45:08.780Z,68.30
2018-02-21T19:47:12.358Z,68.30
2018-02-21T19:51:46.579Z,67.50
2018-02-21T19:53:50.146Z,67.50
2018-02-21T19:55:53.662Z,67.60
2018-02-21T19:57:57.216Z,67.40
2018-02-21T20:00:00.825Z,68.10
2018-02-21T20:02:04.442Z,66.90
2018-02-21T20:04:08.030Z,67.30
2018-02-21T20:06:11.635Z,67.50
2018-02-21T20:08:15.949Z,68.70
2018-02-21T20:10:19.538Z,67.80
2018-02-21T20:12:23.122Z,68.40
2018-02-21T20:14:26.742Z,68.40
2018-02-21T20:16:31.249Z,68.20
2018-02-21T20:18:34.882Z,68.10
2018-02-21T20:20:38.489Z,68.20
2018-02-21T20:22:42.328Z,68.40
2018-02-21T20:24:45.940Z,68.30
2018-02-21T20:26:49.469Z,68.40
2018-02-21T20:28:53.891Z,69.30
2018-02-21T20:30:57.502Z,69.20
2018-02-21T20:33:01.112Z,69.70
2018-02-21T20:35:05.812Z,70.10
2018-02-21T20:37:10.094Z,70.00
2018-02-21T20:39:13.649Z,70.00
2018-02-21T20:41:17.202Z,71.20
2018-02-21T20:43:20.751Z,71.30
2018-02-21T20:45:24.278Z,70.80
2018-02-21T20:47:28.638Z,71.40
2018-02-21T20:49:32.234Z,71.40
2018-02-21T20:51:35.793Z,71.30
2018-02-21T20:53:39.376Z,71.10
2018-02-21T20:55:42.939Z,71.60
2018-02-21T20:57:46.454Z,72.00
2018-02-21T20:59:50.087Z,72.50
2018-02-21T21:01:54.433Z,73.10
2018-02-21T21:03:57.988Z,73.10
2018-02-21T21:06:01.566Z,73.00
2018-02-21T21:08:05.171Z,73.60
2018-02-21T21:10:08.690Z,73.50
2018-02-21T21:12:13.053Z,73.80
2018-02-21T21:14:16.674Z,73.70
2018-02-21T21:16:21.083Z,73.90
2018-02-21T21:18:24.731Z,73.80
2018-02-21T21:20:28.333Z,73.50
2018-02-21T21:22:31.984Z,73.40
2018-02-21T21:24:35.582Z,73.70
2018-02-21T21:26:39.957Z,74.50
2018-02-21T21:28:43.543Z,74.40
2018-02-21T21:30:47.140Z,74.10
2018-02-21T21:32:50.758Z,74.30
2018-02-21T21:34:54.335Z,74.10
2018-02-21T21:36:57.882Z,74.30
2018-02-21T21:39:01.457Z,74.30
2018-02-21T21:41:05.025Z,75.70
2018-02-21T21:43:08.585Z,74.90
2018-02-21T21:45:12.977Z,75.60
2018-02-21T21:47:16.590Z,75.60
2018-02-21T21:49:20.925Z,74.80
2018-02-21T21:51:24.512Z,74.80
2018-02-21T21:53:28.899Z,74.50
2018-02-21T21:55:32.437Z,74.50
2018-02-21T21:57:35.953Z,74.90
2018-02-21T21:59:39.559Z,75.40
2018-02-21T22:01:43.092Z,74.50
2018-02-21T22:03:47.408Z,75.30
2018-02-21T22:05:50.990Z,75.20
2018-02-21T22:07:55.361Z,75.00
2018-02-21T22:09:58.871Z,75.00
2018-02-21T22:12:02.491Z,75.60
2018-02-21T22:14:06.044Z,74.80
2018-02-21T22:16:09.597Z,75.50
2018-02-21T22:18:13.188Z,75.20
2018-02-21T22:20:16.807Z,75.80
2018-02-21T22:22:21.128Z,76.60
2018-02-21T22:24:25.488Z,76.80
2018-02-21T22:26:29.120Z,76.80
2018-02-21T22:28:32.655Z,76.90
2018-02-21T22:30:36.230Z,76.70
2018-02-21T22:32:40.517Z,76.10
2018-02-21T22:34:44.079Z,76.10
2018-02-21T22:36:47.719Z,76.30
2018-02-21T22:38:52.021Z,77.10
2018-02-21T22:40:55.740Z,77.00
2018-02-21T22:43:00.135Z,77.60
2018-02-21T22:45:03.681Z,77.40
2018-02-21T22:47:07.206Z,77.80
2018-02-21T22:49:10.877Z,77.80
2018-02-21T22:51:15.262Z,77.70
2018-02-21T22:53:18.859Z,77.60
2018-02-21T22:55:23.214Z,77.70
2018-02-21T22:57:26.894Z,77.60
2018-02-21T22:59:31.930Z,78.60
2018-02-21T23:01:36.147Z,78.10
2018-02-21T23:03:39.751Z,77.50
2018-02-21T23:05:43.277Z,77.50
2018-02-21T23:07:50.124Z,77.50
2018-02-21T23:09:55.425Z,78.40
2018-02-21T23:11:59.039Z,78.50
2018-02-21T23:14:02.586Z,78.40
2018-02-21T23:16:06.950Z,79.00
2018-02-21T23:18:10.496Z,78.40
2018-02-21T23:20:14.108Z,79.10
2018-02-21T23:22:18.441Z,78.30
2018-02-21T23:24:22.003Z,78.30
2018-02-21T23:26:25.945Z,77.90
2018-02-21T23:28:29.503Z,79.20
2018-02-21T23:30:32.998Z,79.40
2018-02-21T23:32:36.599Z,79.50
2018-02-21T23:34:40.150Z,79.10
2018-02-21T23:36:43.748Z,79.20
2018-02-21T23:38:47.338Z,78.40
2018-02-21T23:40:50.887Z,78.90
2018-02-21T23:42:54.411Z,78.60
2018-02-21T23:44:58.015Z,78.60
2018-02-21T23:47:01.575Z,78.40
2018-02-21T23:49:05.164Z,77.80
2018-02-21T23:51:09.514Z,78.70
2018-02-21T23:53:13.104Z,78.60
2018-02-21T23:55:17.415Z,79.80
2018-02-21T23:57:20.965Z,79.80
2018-02-21T23:59:24.600Z,80.30
